Time;durP1;ratioP1;P1;durP2;ratioP2;P2;SDS_P1;SDS_P2;PMS_P1;PMS_P2;Temp;Humidity;BMP_temperature;BMP_pressure;BME280_temperature;BME280_humidity;BME280_pressure;Samples;Min_cycle;Max_cycle;Signal;HPM_P1;HPM_P2
2024/01/23 00:01:48;0.00;0.00;0.62;0.00;0.00;0.62;3.27;2.23;;;20.00;22.90;;;;;;2233021;62;20399;-68
2024/01/23 00:04:33;0.00;0.00;0.62;0.00;0.00;0.62;4.00;1.90;;;20.00;22.90;;;;;;2233350;62;20403;-68
2024/01/23 00:07:17;0.00;0.00;0.62;0.00;0.00;0.62;3.50;2.00;;;20.00;22.90;;;;;;2233351;62;20463;-68
2024/01/23 00:10:02;0.00;0.00;0.62;0.00;0.00;0.62;2.87;1.80;;;20.00;22.90;;;;;;2233234;62;20501;-66
2024/01/23 00:12:47;0.00;0.00;0.62;0.00;0.00;0.62;3.07;1.80;;;20.00;22.90;;;;;;2233372;62;20348;-68
2024/01/23 00:15:35;0.00;0.00;0.62;0.00;0.00;0.62;3.10;1.67;;;20.00;22.90;;;;;;2233133;62;20383;-68
2024/01/23 00:18:20;0.00;0.00;0.62;0.00;0.00;0.62;3.37;2.17;;;20.00;22.90;;;;;;2233267;62;20379;-67
2024/01/23 00:21:05;0.00;0.00;0.62;0.00;0.00;0.62;2.67;1.77;;;20.00;22.90;;;;;;2233059;62;20606;-68
2024/01/23 00:23:51;0.00;0.00;0.62;0.00;0.00;0.62;3.27;1.70;;;20.00;22.90;;;;;;2232654;62;20351;-68
2024/01/23 00:26:35;0.00;0.00;0.62;0.00;0.00;0.62;3.57;2.13;;;20.00;22.90;;;;;;2233277;62;20403;-68
2024/01/23 00:29:20;0.00;0.00;0.62;0.00;0.00;0.62;3.73;1.60;;;20.00;22.90;;;;;;2232908;62;20397;-69
2024/01/23 00:32:06;0.00;0.00;0.62;0.00;0.00;0.62;2.70;1.67;;;20.00;22.90;;;;;;2233150;62;20391;-68
2024/01/23 00:34:51;0.00;0.00;0.62;0.00;0.00;0.62;3.20;1.57;;;20.00;22.90;;;;;;2232947;62;20351;-68
2024/01/23 00:37:35;0.00;0.00;0.62;0.00;0.00;0.62;4.93;1.83;;;20.00;22.90;;;;;;2233088;62;20379;-69
2024/01/23 00:40:20;0.00;0.00;0.62;0.00;0.00;0.62;2.20;1.40;;;20.00;22.90;;;;;;2232987;62;20913;-67
2024/01/23 00:43:05;0.00;0.00;0.62;0.00;0.00;0.62;4.13;1.63;;;20.00;22.90;;;;;;2232557;62;20930;-66
2024/01/23 00:45:50;0.00;0.00;0.62;0.00;0.00;0.62;5.00;2.00;;;20.00;22.90;;;;;;2232555;62;20393;-66
2024/01/23 00:48:36;0.00;0.00;0.62;0.00;0.00;0.62;2.13;1.37;;;20.00;22.90;;;;;;2233213;62;20382;-68
2024/01/23 00:51:20;0.00;0.00;0.62;0.00;0.00;0.62;3.27;2.23;;;20.00;22.90;;;;;;2232210;62;20808;-68
2024/01/23 00:54:05;0.00;0.00;0.62;0.00;0.00;0.62;2.77;1.43;;;20.00;22.90;;;;;;2232903;62;20407;-69
2024/01/23 00:56:50;0.00;0.00;0.62;0.00;0.00;0.62;3.60;2.00;;;20.00;22.90;;;;;;2232974;62;20395;-67
2024/01/23 00:59:35;0.00;0.00;0.62;0.00;0.00;0.62;2.90;1.67;;;20.00;22.90;;;;;;2232951;62;20433;-69
2024/01/23 01:02:19;0.00;0.00;0.62;0.00;0.00;0.62;3.60;1.57;;;20.00;22.90;;;;;;2232980;62;20387;-66
2024/01/23 01:05:06;0.00;0.00;0.62;0.00;0.00;0.62;4.70;1.60;;;20.00;22.90;;;;;;2232887;62;20372;-67
2024/01/23 01:07:50;0.00;0.00;0.62;0.00;0.00;0.62;4.50;1.63;;;20.00;22.90;;;;;;2233174;62;20378;-67
2024/01/23 01:10:35;0.00;0.00;0.62;0.00;0.00;0.62;2.50;1.57;;;20.00;22.90;;;;;;2235806;61;20473;-67
2024/01/23 01:13:20;0.00;0.00;0.62;0.00;0.00;0.62;3.63;2.07;;;20.10;22.90;;;;;;2232573;62;20420;-68
2024/01/23 01:16:05;0.00;0.00;0.62;0.00;0.00;0.62;2.90;1.73;;;20.00;22.80;;;;;;2232509;62;20380;-69
2024/01/23 01:18:50;0.00;0.00;0.62;0.00;0.00;0.62;4.60;1.73;;;20.10;22.90;;;;;;2232877;62;20927;-68
2024/01/23 01:21:37;0.00;0.00;0.62;0.00;0.00;0.62;2.70;1.50;;;20.00;22.80;;;;;;2233016;62;20434;-70
2024/01/23 01:24:21;0.00;0.00;0.62;0.00;0.00;0.62;5.37;2.70;;;20.10;22.90;;;;;;2229755;62;20484;-68
2024/01/23 01:27:06;0.00;0.00;0.62;0.00;0.00;0.62;1.80;1.10;;;20.10;22.90;;;;;;2233135;62;20832;-67
2024/01/23 01:29:51;0.00;0.00;0.62;0.00;0.00;0.62;2.87;1.50;;;20.10;22.90;;;;;;2232710;62;20383;-68
2024/01/23 01:32:36;0.00;0.00;0.62;0.00;0.00;0.62;2.30;1.60;;;20.10;22.90;;;;;;2228564;62;20678;-68
2024/01/23 01:35:21;0.00;0.00;0.62;0.00;0.00;0.62;3.63;1.30;;;20.10;22.90;;;;;;2232321;62;20451;-67
2024/01/23 01:38:07;0.00;0.00;0.62;0.00;0.00;0.62;3.43;1.53;;;20.10;22.90;;;;;;2232691;62;20359;-69
2024/01/23 01:40:54;0.00;0.00;0.62;0.00;0.00;0.62;2.43;1.27;;;20.10;22.90;;;;;;2232724;62;20415;-68
2024/01/23 01:43:39;0.00;0.00;0.62;0.00;0.00;0.62;2.00;1.30;;;20.10;22.90;;;;;;2232842;62;20758;-68
2024/01/23 01:46:25;0.00;0.00;0.62;0.00;0.00;0.62;3.20;1.60;;;20.10;22.90;;;;;;2232632;62;20403;-68
2024/01/23 01:49:11;0.00;0.00;0.62;0.00;0.00;0.62;3.20;1.60;;;20.00;22.80;;;;;;2232318;62;20478;-68
2024/01/23 01:51:56;0.00;0.00;0.62;0.00;0.00;0.62;3.20;1.33;;;20.10;22.90;;;;;;2231956;62;20958;-66
2024/01/23 01:54:43;0.00;0.00;0.62;0.00;0.00;0.62;3.00;1.47;;;20.10;22.80;;;;;;2232633;62;20379;-69
2024/01/23 01:57:33;0.00;0.00;0.62;0.00;0.00;0.62;4.83;1.77;;;20.10;22.80;;;;;;2232617;62;20785;-69
2024/01/23 02:00:18;0.00;0.00;0.62;0.00;0.00;0.62;3.17;1.70;;;20.10;22.80;;;;;;2232518;62;20387;-66
2024/01/23 02:03:04;0.00;0.00;0.62;0.00;0.00;0.62;3.17;1.60;;;20.10;22.80;;;;;;2229748;62;20437;-67
2024/01/23 02:05:50;0.00;0.00;0.62;0.00;0.00;0.62;3.00;1.70;;;20.10;22.80;;;;;;2232767;62;20419;-66
2024/01/23 02:08:39;0.00;0.00;0.62;0.00;0.00;0.62;2.70;1.50;;;20.10;22.80;;;;;;2232544;62;20954;-69
2024/01/23 02:11:25;0.00;0.00;0.62;0.00;0.00;0.62;4.60;1.93;;;20.10;22.80;;;;;;2232850;62;20394;-67
2024/01/23 02:14:09;0.00;0.00;0.62;0.00;0.00;0.62;2.73;1.23;;;20.10;22.80;;;;;;2232648;62;20371;-67
2024/01/23 02:16:54;0.00;0.00;0.62;0.00;0.00;0.62;2.53;1.30;;;20.10;22.80;;;;;;2232595;62;20431;-66
2024/01/23 02:19:39;0.00;0.00;0.62;0.00;0.00;0.62;2.50;1.37;;;20.10;22.80;;;;;;2232516;62;20371;-66
2024/01/23 02:22:23;0.00;0.00;0.62;0.00;0.00;0.62;3.23;1.60;;;20.10;22.80;;;;;;2232568;62;20968;-67
2024/01/23 02:25:09;0.00;0.00;0.62;0.00;0.00;0.62;2.97;1.30;;;20.10;22.80;;;;;;2232593;62;20458;-67
2024/01/23 02:27:54;0.00;0.00;0.62;0.00;0.00;0.62;3.40;1.77;;;20.10;22.80;;;;;;2232755;62;20824;-67
2024/01/23 02:30:39;0.00;0.00;0.62;0.00;0.00;0.62;2.73;1.33;;;20.10;22.80;;;;;;2232127;62;20451;-67
2024/01/23 02:33:24;0.00;0.00;0.62;0.00;0.00;0.62;2.23;1.10;;;20.10;22.80;;;;;;2229422;62;20380;-67
2024/01/23 02:36:08;0.00;0.00;0.62;0.00;0.00;0.62;3.00;1.00;;;20.10;22.80;;;;;;2448409;46;20421;-68
2024/01/23 02:38:53;0.00;0.00;0.62;0.00;0.00;0.62;2.40;1.03;;;20.10;22.80;;;;;;2236452;62;20815;-67
2024/01/23 02:41:40;0.00;0.00;0.62;0.00;0.00;0.62;3.40;1.40;;;20.10;22.80;;;;;;2236462;61;20389;-67
2024/01/23 02:44:24;0.00;0.00;0.62;0.00;0.00;0.62;2.50;1.30;;;20.10;22.80;;;;;;2463789;54;20398;-67
2024/01/23 02:47:09;0.00;0.00;0.62;0.00;0.00;0.62;1.80;1.10;;;20.10;22.80;;;;;;2236082;62;20361;-67
2024/01/23 02:49:54;0.00;0.00;0.62;0.00;0.00;0.62;2.47;1.17;;;20.10;22.80;;;;;;2236471;62;20355;-67
2024/01/23 02:52:38;0.00;0.00;0.62;0.00;0.00;0.62;3.30;1.50;;;20.10;22.80;;;;;;2236371;62;20852;-68
2024/01/23 02:55:23;0.00;0.00;0.62;0.00;0.00;0.62;3.33;1.50;;;20.10;22.80;;;;;;2236508;62;20394;-67
2024/01/23 02:58:09;0.00;0.00;0.62;0.00;0.00;0.62;1.80;1.07;;;20.10;22.80;;;;;;2236520;62;20390;-67
2024/01/23 03:00:54;0.00;0.00;0.62;0.00;0.00;0.62;3.97;1.57;;;20.10;22.80;;;;;;2236433;61;20457;-68
2024/01/23 03:03:38;0.00;0.00;0.62;0.00;0.00;0.62;3.90;1.60;;;20.10;22.80;;;;;;2236569;62;20366;-68
2024/01/23 03:06:23;0.00;0.00;0.62;0.00;0.00;0.62;2.10;1.17;;;20.10;22.80;;;;;;2236500;62;20351;-67
2024/01/23 03:09:10;0.00;0.00;0.62;0.00;0.00;0.62;2.60;1.20;;;20.10;22.80;;;;;;2230937;62;20387;-67
2024/01/23 03:11:55;0.00;0.00;0.62;0.00;0.00;0.62;2.77;1.10;;;20.10;22.80;;;;;;2236430;61;20417;-66
2024/01/23 03:14:41;0.00;0.00;0.62;0.00;0.00;0.62;4.07;1.27;;;20.10;22.80;;;;;;2236386;62;20387;-68
2024/01/23 03:17:25;0.00;0.00;0.62;0.00;0.00;0.62;3.10;1.30;;;20.10;23.30;;;;;;2230764;62;20422;-68
2024/01/23 03:20:11;0.00;0.00;0.62;0.00;0.00;0.62;3.60;1.23;;;20.10;22.80;;;;;;2233123;62;20387;-67
2024/01/23 03:22:56;0.00;0.00;0.62;0.00;0.00;0.62;3.00;1.37;;;20.10;22.80;;;;;;2233089;62;20375;-68
2024/01/23 03:25:40;0.00;0.00;0.62;0.00;0.00;0.62;2.73;1.27;;;20.10;22.80;;;;;;2232966;62;20463;-69
2024/01/23 03:28:25;0.00;0.00;0.62;0.00;0.00;0.62;2.83;1.57;;;20.10;22.80;;;;;;2233200;62;20367;-69
2024/01/23 03:31:11;0.00;0.00;0.62;0.00;0.00;0.62;2.47;1.13;;;20.10;22.80;;;;;;2232861;62;20407;-68
2024/01/23 03:33:56;0.00;0.00;0.62;0.00;0.00;0.62;1.90;1.03;;;20.10;22.80;;;;;;2235450;62;20356;-68
2024/01/23 03:36:40;0.00;0.00;0.62;0.00;0.00;0.62;2.67;1.10;;;20.10;22.70;;;;;;2233058;62;20862;-68
2024/01/23 03:39:25;0.00;0.00;0.62;0.00;0.00;0.62;2.23;1.03;;;20.10;22.80;;;;;;2233415;62;20351;-68
2024/01/23 03:42:10;0.00;0.00;0.62;0.00;0.00;0.62;2.73;1.37;;;20.10;22.70;;;;;;2234503;62;20399;-67
2024/01/23 03:44:54;0.00;0.00;0.62;0.00;0.00;0.62;3.00;1.37;;;20.10;22.70;;;;;;2234962;62;20962;-67
2024/01/23 03:47:40;0.00;0.00;0.62;0.00;0.00;0.62;2.03;1.10;;;20.10;22.70;;;;;;2234855;62;20443;-68
2024/01/23 03:50:25;0.00;0.00;0.62;0.00;0.00;0.62;3.67;1.37;;;20.10;22.70;;;;;;2234834;62;20399;-69
2024/01/23 03:53:09;0.00;0.00;0.62;0.00;0.00;0.62;2.50;1.27;;;20.10;22.70;;;;;;2234992;62;20782;-68
2024/01/23 03:55:54;0.00;0.00;0.62;0.00;0.00;0.62;3.23;1.27;;;20.10;22.70;;;;;;2235041;62;20798;-68
2024/01/23 03:58:40;0.00;0.00;0.62;0.00;0.00;0.62;2.20;1.00;;;20.10;22.70;;;;;;2234666;62;20351;-67
2024/01/23 04:01:25;0.00;0.00;0.62;0.00;0.00;0.62;1.80;1.07;;;20.10;22.70;;;;;;2234306;62;20647;-68
2024/01/23 04:04:11;0.00;0.00;0.62;0.00;0.00;0.62;3.20;1.53;;;20.10;22.70;;;;;;2234343;62;20911;-68
2024/01/23 04:06:55;0.00;0.00;0.62;0.00;0.00;0.62;3.43;1.10;;;20.10;22.70;;;;;;2234017;62;20894;-67
2024/01/23 04:09:40;0.00;0.00;0.62;0.00;0.00;0.62;2.23;0.90;;;20.10;22.70;;;;;;2235438;62;20355;-68
2024/01/23 04:12:25;0.00;0.00;0.62;0.00;0.00;0.62;3.00;1.20;;;20.10;22.70;;;;;;2234917;62;20385;-67
2024/01/23 04:15:10;0.00;0.00;0.62;0.00;0.00;0.62;2.60;1.10;;;20.10;22.70;;;;;;2234332;62;20917;-69
2024/01/23 04:17:56;0.00;0.00;0.62;0.00;0.00;0.62;3.27;1.67;;;20.10;22.70;;;;;;2234254;62;20458;-67
2024/01/23 04:20:42;0.00;0.00;0.62;0.00;0.00;0.62;1.90;1.10;;;20.10;22.70;;;;;;2233463;62;20395;-70
2024/01/23 04:23:28;0.00;0.00;0.62;0.00;0.00;0.62;2.20;1.33;;;20.10;22.70;;;;;;2233230;62;20375;-67
2024/01/23 04:26:13;0.00;0.00;0.62;0.00;0.00;0.62;2.43;1.10;;;20.10;22.70;;;;;;2233240;62;20407;-68
2024/01/23 04:28:58;0.00;0.00;0.62;0.00;0.00;0.62;3.67;1.33;;;20.00;22.60;;;;;;2232668;62;20387;-67
2024/01/23 04:31:43;0.00;0.00;0.62;0.00;0.00;0.62;4.13;1.00;;;20.10;22.70;;;;;;2235250;61;20398;-68
2024/01/23 04:34:27;0.00;0.00;0.62;0.00;0.00;0.62;2.73;1.00;;;20.10;22.70;;;;;;2233401;62;20363;-67
2024/01/23 04:37:13;0.00;0.00;0.62;0.00;0.00;0.62;2.23;1.17;;;20.10;22.70;;;;;;2232878;62;20419;-68
2024/01/23 04:39:59;0.00;0.00;0.62;0.00;0.00;0.62;2.43;1.00;;;20.10;22.70;;;;;;2233007;62;20419;-68
2024/01/23 04:42:44;0.00;0.00;0.62;0.00;0.00;0.62;3.07;1.03;;;20.10;22.70;;;;;;2232865;62;20432;-68
2024/01/23 04:45:28;0.00;0.00;0.62;0.00;0.00;0.62;2.70;1.03;;;20.10;22.70;;;;;;2232889;62;20363;-68
2024/01/23 04:48:13;0.00;0.00;0.62;0.00;0.00;0.62;2.73;1.03;;;20.10;22.70;;;;;;2232537;62;20360;-68
2024/01/23 04:50:57;0.00;0.00;0.62;0.00;0.00;0.62;1.90;1.03;;;20.10;22.70;;;;;;2232832;62;20387;-71
2024/01/23 04:53:43;0.00;0.00;0.62;0.00;0.00;0.62;2.17;1.10;;;20.10;22.70;;;;;;2232952;62;20435;-67
2024/01/23 04:56:27;0.00;0.00;0.62;0.00;0.00;0.62;2.83;1.13;;;20.10;22.70;;;;;;2232828;62;21102;-68
2024/01/23 04:59:12;0.00;0.00;0.62;0.00;0.00;0.62;4.33;1.43;;;20.10;22.70;;;;;;2232961;62;20367;-67
2024/01/23 05:01:56;0.00;0.00;0.62;0.00;0.00;0.62;4.93;1.53;;;20.10;22.70;;;;;;2233075;62;20395;-67
2024/01/23 05:04:41;0.00;0.00;0.62;0.00;0.00;0.62;4.90;1.23;;;20.10;22.70;;;;;;2232697;62;20356;-68
2024/01/23 05:07:26;0.00;0.00;0.62;0.00;0.00;0.62;2.00;1.10;;;20.10;22.70;;;;;;2232788;62;20363;-68
2024/01/23 05:10:12;0.00;0.00;0.62;0.00;0.00;0.62;2.50;1.60;;;20.10;22.70;;;;;;2232614;62;20355;-68
2024/01/23 05:12:57;0.00;0.00;0.62;0.00;0.00;0.62;2.20;1.40;;;20.10;22.70;;;;;;2232670;62;20359;-69
2024/01/23 05:15:41;0.00;0.00;0.62;0.00;0.00;0.62;4.20;1.27;;;20.10;22.70;;;;;;2232642;62;20379;-67
2024/01/23 05:18:26;0.00;0.00;0.62;0.00;0.00;0.62;1.93;0.90;;;20.10;22.70;;;;;;2232675;62;20509;-68
2024/01/23 05:21:11;0.00;0.00;0.62;0.00;0.00;0.62;3.40;1.27;;;20.10;22.70;;;;;;2232624;62;20391;-68
2024/01/23 05:23:55;0.00;0.00;0.62;0.00;0.00;0.62;2.37;1.50;;;20.10;22.70;;;;;;2232471;62;20360;-68
2024/01/23 05:26:41;0.00;0.00;0.62;0.00;0.00;0.62;4.70;1.20;;;20.10;22.70;;;;;;2232543;62;20866;-68
2024/01/23 05:29:26;0.00;0.00;0.62;0.00;0.00;0.62;2.20;0.90;;;20.10;22.70;;;;;;2232701;62;20352;-68
2024/01/23 05:32:10;0.00;0.00;0.62;0.00;0.00;0.62;2.73;1.27;;;20.10;22.70;;;;;;2232507;62;20390;-68
2024/01/23 05:34:55;0.00;0.00;0.62;0.00;0.00;0.62;2.70;0.93;;;20.10;22.70;;;;;;2232535;62;20457;-69
2024/01/23 05:37:39;0.00;0.00;0.62;0.00;0.00;0.62;3.30;1.17;;;20.10;22.70;;;;;;2232860;62;20420;-69
2024/01/23 05:40:24;0.00;0.00;0.62;0.00;0.00;0.62;3.60;1.00;;;20.10;22.70;;;;;;2232677;62;20347;-67
2024/01/23 05:43:10;0.00;0.00;0.62;0.00;0.00;0.62;3.30;1.20;;;20.00;22.60;;;;;;2232568;62;20445;-67
2024/01/23 05:45:54;0.00;0.00;0.62;0.00;0.00;0.62;2.10;1.00;;;20.00;22.60;;;;;;2232753;62;20363;-67
2024/01/23 05:48:39;0.00;0.00;0.62;0.00;0.00;0.62;3.00;1.37;;;20.10;22.70;;;;;;2232640;62;20408;-68
2024/01/23 05:51:23;0.00;0.00;0.62;0.00;0.00;0.62;1.83;0.97;;;20.10;22.70;;;;;;2232652;62;20926;-68
2024/01/23 05:54:09;0.00;0.00;0.62;0.00;0.00;0.62;2.30;1.10;;;20.00;22.60;;;;;;2232722;62;20351;-67
2024/01/23 05:56:53;0.00;0.00;0.62;0.00;0.00;0.62;4.80;1.27;;;20.10;22.70;;;;;;2232275;62;20402;-68
2024/01/23 05:59:40;0.00;0.00;0.62;0.00;0.00;0.62;2.50;1.30;;;20.00;22.70;;;;;;2232654;62;20355;-69
2024/01/23 06:02:25;0.00;0.00;0.62;0.00;0.00;0.62;3.20;1.57;;;20.00;22.60;;;;;;2234942;62;20402;-68
2024/01/23 06:05:10;0.00;0.00;0.62;0.00;0.00;0.62;4.27;1.57;;;20.10;22.70;;;;;;2232589;62;20359;-68
2024/01/23 06:07:54;0.00;0.00;0.62;0.00;0.00;0.62;4.37;1.63;;;20.10;22.70;;;;;;2232383;62;20392;-68
2024/01/23 06:10:39;0.00;0.00;0.62;0.00;0.00;0.62;3.10;1.43;;;20.00;22.60;;;;;;2232596;62;20399;-67
2024/01/23 06:13:23;0.00;0.00;0.62;0.00;0.00;0.62;3.87;2.33;;;20.10;22.70;;;;;;2232708;62;20360;-68
2024/01/23 06:16:10;0.00;0.00;0.62;0.00;0.00;0.62;4.73;2.03;;;20.10;22.70;;;;;;2232597;62;20383;-69
2024/01/23 06:18:55;0.00;0.00;0.62;0.00;0.00;0.62;3.60;1.90;;;20.00;22.60;;;;;;2232792;62;20509;-67
2024/01/23 06:21:39;0.00;0.00;0.62;0.00;0.00;0.62;3.37;1.80;;;20.00;22.60;;;;;;2232507;62;20885;-68
2024/01/23 06:24:24;0.00;0.00;0.62;0.00;0.00;0.62;3.20;1.93;;;20.00;22.60;;;;;;2232571;62;20363;-68
2024/01/23 06:27:09;0.00;0.00;0.62;0.00;0.00;0.62;5.20;2.80;;;20.00;22.60;;;;;;2232298;62;20367;-69
2024/01/23 06:29:53;0.00;0.00;0.62;0.00;0.00;0.62;3.73;2.43;;;20.10;22.70;;;;;;2232434;62;20925;-68
2024/01/23 06:32:40;0.00;0.00;0.62;0.00;0.00;0.62;5.20;2.70;;;20.00;22.60;;;;;;2232342;62;20375;-68
2024/01/23 06:35:24;0.00;0.00;0.62;0.00;0.00;0.62;4.33;2.80;;;20.00;22.60;;;;;;2232436;62;20913;-68
2024/01/23 06:38:09;0.00;0.00;0.62;0.00;0.00;0.62;4.27;2.37;;;20.10;22.70;;;;;;2232395;62;20375;-69
2024/01/23 06:40:54;0.00;0.00;0.62;0.00;0.00;0.62;4.13;2.27;;;20.10;22.70;;;;;;2232021;62;20399;-68
2024/01/23 06:43:38;0.00;0.00;0.62;0.00;0.00;0.62;4.60;2.77;;;20.10;22.70;;;;;;2234745;62;20374;-68
2024/01/23 06:46:23;0.00;0.00;0.62;0.00;0.00;0.62;3.60;2.70;;;20.00;22.60;;;;;;2232630;62;20423;-68
2024/01/23 06:49:09;0.00;0.00;0.62;0.00;0.00;0.62;4.80;3.00;;;20.00;22.60;;;;;;2229007;62;20517;-68
2024/01/23 06:51:53;0.00;0.00;0.62;0.00;0.00;0.62;4.07;2.43;;;20.00;22.60;;;;;;2232857;62;20406;-68
2024/01/23 06:54:39;0.00;0.00;0.62;0.00;0.00;0.62;4.23;2.97;;;20.00;22.60;;;;;;2235410;62;20390;-68
2024/01/23 06:57:24;0.00;0.00;0.62;0.00;0.00;0.62;4.13;2.93;;;20.00;22.70;;;;;;2232424;62;20402;-69
2024/01/23 07:00:11;0.00;0.00;0.62;0.00;0.00;0.62;4.53;2.73;;;20.00;22.70;;;;;;2232796;62;20447;-69
2024/01/23 07:02:56;0.00;0.00;0.62;0.00;0.00;0.62;5.07;3.20;;;20.00;22.70;;;;;;2233675;62;20366;-69
2024/01/23 07:05:42;0.00;0.00;0.62;0.00;0.00;0.62;5.80;3.23;;;20.00;22.70;;;;;;2233042;62;20870;-72
2024/01/23 07:08:27;0.00;0.00;0.62;0.00;0.00;0.62;5.20;3.50;;;20.00;22.70;;;;;;2233268;62;20419;-68
2024/01/23 07:11:12;0.00;0.00;0.62;0.00;0.00;0.62;6.50;3.17;;;20.10;22.70;;;;;;2232864;62;20403;-68
2024/01/23 07:13:57;0.00;0.00;0.62;0.00;0.00;0.62;5.97;3.90;;;20.00;22.70;;;;;;2233212;62;20435;-68
2024/01/23 07:16:41;0.00;0.00;0.62;0.00;0.00;0.62;5.37;4.27;;;20.00;22.70;;;;;;2232533;62;20507;-68
2024/01/23 07:19:26;0.00;0.00;0.62;0.00;0.00;0.62;9.90;4.90;;;20.00;22.70;;;;;;2233009;62;20375;-67
2024/01/23 07:22:12;0.00;0.00;0.62;0.00;0.00;0.62;9.97;5.23;;;20.00;22.70;;;;;;2233080;62;20442;-67
2024/01/23 07:25:03;0.00;0.00;0.62;0.00;0.00;0.62;9.03;5.83;;;20.00;22.70;;;;;;2233290;62;20917;-67
2024/01/23 07:27:48;0.00;0.00;0.62;0.00;0.00;0.62;7.87;5.67;;;20.00;22.70;;;;;;2233106;62;20377;-70
2024/01/23 07:30:32;0.00;0.00;0.62;0.00;0.00;0.62;8.70;5.50;;;20.00;22.70;;;;;;2232931;62;20395;-67
2024/01/23 07:33:17;0.00;0.00;0.62;0.00;0.00;0.62;8.30;5.63;;;20.00;22.70;;;;;;2232836;62;20424;-68
2024/01/23 07:36:02;0.00;0.00;0.62;0.00;0.00;0.62;9.77;6.37;;;20.00;22.70;;;;;;2232664;62;20929;-67
2024/01/23 07:38:48;0.00;0.00;0.62;0.00;0.00;0.62;10.50;6.30;;;20.00;22.70;;;;;;2233071;62;20360;-67
2024/01/23 07:41:32;0.00;0.00;0.62;0.00;0.00;0.62;7.23;5.30;;;20.00;22.70;;;;;;2232885;62;20402;-68
2024/01/23 07:44:17;0.00;0.00;0.62;0.00;0.00;0.62;9.77;6.70;;;20.00;22.70;;;;;;2233068;62;20636;-68
2024/01/23 07:47:01;0.00;0.00;0.62;0.00;0.00;0.62;10.23;5.93;;;20.00;22.70;;;;;;2233155;62;20367;-68
2024/01/23 07:49:46;0.00;0.00;0.62;0.00;0.00;0.62;10.50;6.77;;;20.00;22.70;;;;;;2232965;62;20352;-68
2024/01/23 07:52:31;0.00;0.00;0.62;0.00;0.00;0.62;8.97;6.10;;;20.00;22.70;;;;;;2233119;62;20387;-68
2024/01/23 07:55:17;0.00;0.00;0.62;0.00;0.00;0.62;8.50;5.60;;;20.00;22.70;;;;;;2232936;62;20360;-67
2024/01/23 07:58:02;0.00;0.00;0.62;0.00;0.00;0.62;12.57;5.90;;;20.00;22.70;;;;;;2233123;62;20399;-68
2024/01/23 08:00:47;0.00;0.00;0.62;0.00;0.00;0.62;10.20;6.50;;;20.00;22.70;;;;;;2232665;62;20399;-68
2024/01/23 08:03:32;0.00;0.00;0.62;0.00;0.00;0.62;9.67;6.03;;;20.00;22.70;;;;;;2232782;62;20352;-68
2024/01/23 08:06:17;0.00;0.00;0.62;0.00;0.00;0.62;10.00;6.13;;;20.00;22.70;;;;;;2232945;62;20367;-67
2024/01/23 08:09:04;0.00;0.00;0.62;0.00;0.00;0.62;12.40;6.73;;;20.00;22.70;;;;;;2233116;62;20404;-68
2024/01/23 08:11:52;0.00;0.00;0.62;0.00;0.00;0.62;9.00;6.03;;;20.00;23.30;;;;;;2232862;62;20391;-68
2024/01/23 08:14:37;0.00;0.00;0.62;0.00;0.00;0.62;7.63;5.30;;;20.00;22.70;;;;;;2232553;62;20693;-67
2024/01/23 08:17:21;0.00;0.00;0.62;0.00;0.00;0.62;8.60;5.00;;;20.00;22.70;;;;;;2232889;62;20395;-68
2024/01/23 08:20:10;0.00;0.00;0.62;0.00;0.00;0.62;11.93;6.23;;;20.00;22.70;;;;;;2232599;62;20491;-68
2024/01/23 08:22:55;0.00;0.00;0.62;0.00;0.00;0.62;10.70;5.87;;;20.00;22.70;;;;;;2233134;62;20391;-67
2024/01/23 08:25:42;0.00;0.00;0.62;0.00;0.00;0.62;12.13;7.23;;;20.00;22.70;;;;;;2232890;62;20953;-68
2024/01/23 08:28:27;0.00;0.00;0.62;0.00;0.00;0.62;9.77;6.23;;;20.00;22.70;;;;;;2235247;62;20372;-68
2024/01/23 08:31:12;0.00;0.00;0.62;0.00;0.00;0.62;10.30;7.60;;;20.00;22.70;;;;;;2232997;62;20419;-68
2024/01/23 08:33:57;0.00;0.00;0.62;0.00;0.00;0.62;10.17;6.97;;;20.00;22.70;;;;;;2234289;62;20420;-68
2024/01/23 08:36:41;0.00;0.00;0.62;0.00;0.00;0.62;8.40;6.20;;;20.00;22.70;;;;;;2234564;62;20376;-70
2024/01/23 08:39:26;0.00;0.00;0.62;0.00;0.00;0.62;9.90;6.33;;;20.00;22.70;;;;;;2233368;62;20367;-68
2024/01/23 08:42:10;0.00;0.00;0.62;0.00;0.00;0.62;7.37;6.10;;;20.00;22.70;;;;;;2233455;62;20383;-69
2024/01/23 08:44:56;0.00;0.00;0.62;0.00;0.00;0.62;10.13;7.30;;;20.00;23.30;;;;;;2232719;62;20396;-68
2024/01/23 08:47:41;0.00;0.00;0.62;0.00;0.00;0.62;8.80;6.90;;;20.00;22.70;;;;;;2232585;62;20439;-69
2024/01/23 08:50:26;0.00;0.00;0.62;0.00;0.00;0.62;9.17;6.00;;;20.00;22.70;;;;;;2232582;62;20416;-68
2024/01/23 08:53:12;0.00;0.00;0.62;0.00;0.00;0.62;10.37;7.67;;;20.00;22.70;;;;;;2232997;62;20404;-68
2024/01/23 08:55:57;0.00;0.00;0.62;0.00;0.00;0.62;10.20;7.53;;;20.00;22.70;;;;;;2232592;62;20447;-68
2024/01/23 08:58:42;0.00;0.00;0.62;0.00;0.00;0.62;10.00;6.93;;;20.00;22.70;;;;;;2232811;62;20371;-69
2024/01/23 09:01:28;0.00;0.00;0.62;0.00;0.00;0.62;12.80;7.20;;;20.00;22.70;;;;;;2232319;62;20414;-69
2024/01/23 09:04:13;0.00;0.00;0.62;0.00;0.00;0.62;10.00;6.00;;;20.00;22.70;;;;;;2232737;62;21087;-69
2024/01/23 09:06:57;0.00;0.00;0.62;0.00;0.00;0.62;8.40;5.57;;;20.00;22.70;;;;;;2232624;62;20412;-71
2024/01/23 09:09:42;0.00;0.00;0.62;0.00;0.00;0.62;10.80;6.63;;;20.00;22.80;;;;;;2232698;62;20419;-69
2024/01/23 09:12:29;0.00;0.00;0.62;0.00;0.00;0.62;9.53;6.17;;;20.00;22.80;;;;;;2232830;62;20402;-68
2024/01/23 09:15:14;0.00;0.00;0.62;0.00;0.00;0.62;9.93;6.30;;;20.00;22.80;;;;;;2232715;62;20459;-70
2024/01/23 09:18:00;0.00;0.00;0.62;0.00;0.00;0.62;10.77;6.53;;;20.00;22.80;;;;;;2232432;62;20371;-70
2024/01/23 09:20:44;0.00;0.00;0.62;0.00;0.00;0.62;8.30;6.17;;;20.00;22.80;;;;;;2232467;62;20480;-68
2024/01/23 09:23:29;0.00;0.00;0.62;0.00;0.00;0.62;9.23;6.07;;;20.00;22.80;;;;;;2231982;62;20368;-68
2024/01/23 09:26:14;0.00;0.00;0.62;0.00;0.00;0.62;12.10;5.67;;;20.00;22.80;;;;;;2235255;58;20436;-68
2024/01/23 09:28:59;0.00;0.00;0.62;0.00;0.00;0.62;11.20;5.63;;;20.00;22.80;;;;;;2232681;62;20391;-69
2024/01/23 09:31:44;0.00;0.00;0.62;0.00;0.00;0.62;8.97;5.70;;;20.00;22.80;;;;;;2232487;62;20451;-69
2024/01/23 09:34:30;0.00;0.00;0.62;0.00;0.00;0.62;9.70;6.10;;;20.00;22.80;;;;;;2232887;62;20367;-69
2024/01/23 09:37:15;0.00;0.00;0.62;0.00;0.00;0.62;7.20;5.60;;;20.00;22.80;;;;;;2232251;62;20551;-71
2024/01/23 09:40:00;0.00;0.00;0.62;0.00;0.00;0.62;9.93;5.70;;;20.00;22.80;;;;;;2232392;62;20367;-68
2024/01/23 09:42:45;0.00;0.00;0.62;0.00;0.00;0.62;9.00;6.60;;;20.00;22.80;;;;;;2232780;62;20398;-70
2024/01/23 09:45:30;0.00;0.00;0.62;0.00;0.00;0.62;7.20;5.10;;;20.00;22.80;;;;;;2232140;62;20367;-68
2024/01/23 09:48:15;0.00;0.00;0.62;0.00;0.00;0.62;14.40;6.43;;;20.00;22.80;;;;;;2232639;62;20827;-69
2024/01/23 09:51:01;0.00;0.00;0.62;0.00;0.00;0.62;7.90;5.00;;;20.00;22.80;;;;;;2231887;62;20474;-69
2024/01/23 09:53:46;0.00;0.00;0.62;0.00;0.00;0.62;10.67;6.63;;;20.00;22.80;;;;;;2232369;62;20379;-69
2024/01/23 09:56:32;0.00;0.00;0.62;0.00;0.00;0.62;9.13;5.40;;;20.00;22.80;;;;;;2232404;62;20455;-68
2024/01/23 09:59:17;0.00;0.00;0.62;0.00;0.00;0.62;11.07;5.83;;;20.00;22.90;;;;;;2232037;62;20379;-68
2024/01/23 10:02:02;0.00;0.00;0.62;0.00;0.00;0.62;10.57;5.80;;;20.00;22.90;;;;;;2232399;62;20446;-69
2024/01/23 10:04:51;0.00;0.00;0.62;0.00;0.00;0.62;13.13;5.77;;;20.00;22.90;;;;;;2232607;62;20427;-68
2024/01/23 10:07:37;0.00;0.00;0.62;0.00;0.00;0.62;20.03;6.00;;;20.00;22.90;;;;;;2232391;62;20436;-68
2024/01/23 10:10:24;0.00;0.00;0.62;0.00;0.00;0.62;18.03;6.43;;;20.00;22.90;;;;;;2234734;61;20455;-68
2024/01/23 10:13:13;0.00;0.00;0.62;0.00;0.00;0.62;25.53;6.70;;;20.00;22.90;;;;;;2234710;62;20374;-68
2024/01/23 10:15:57;0.00;0.00;0.62;0.00;0.00;0.62;22.67;7.20;;;20.00;22.90;;;;;;2232304;62;20383;-68
2024/01/23 10:18:46;0.00;0.00;0.62;0.00;0.00;0.62;20.93;6.80;;;20.00;22.90;;;;;;2232588;62;20370;-72
2024/01/23 10:21:30;0.00;0.00;0.62;0.00;0.00;0.62;21.93;6.77;;;20.00;23.50;;;;;;2232606;62;20799;-68
2024/01/23 10:24:17;0.00;0.00;0.62;0.00;0.00;0.62;22.13;6.40;;;20.00;22.90;;;;;;2232580;62;20915;-68
2024/01/23 10:27:02;0.00;0.00;0.62;0.00;0.00;0.62;13.30;5.23;;;20.00;22.90;;;;;;2232978;62;20802;-70
2024/01/23 10:29:46;0.00;0.00;0.62;0.00;0.00;0.62;17.20;6.43;;;20.00;22.90;;;;;;2233102;62;20375;-68
2024/01/23 10:32:31;0.00;0.00;0.62;0.00;0.00;0.62;24.33;5.70;;;20.00;22.90;;;;;;2233884;62;20395;-70
2024/01/23 10:35:16;0.00;0.00;0.62;0.00;0.00;0.62;21.13;7.13;;;20.00;22.90;;;;;;2233118;62;20367;-69
2024/01/23 10:38:02;0.00;0.00;0.62;0.00;0.00;0.62;16.63;6.97;;;20.00;22.90;;;;;;2233210;62;20427;-68
2024/01/23 10:40:51;0.00;0.00;0.62;0.00;0.00;0.62;18.40;6.73;;;20.00;22.90;;;;;;2233038;62;20438;-69
2024/01/23 10:43:37;0.00;0.00;0.62;0.00;0.00;0.62;28.70;8.30;;;20.00;22.90;;;;;;2233389;62;20445;-68
2024/01/23 10:46:23;0.00;0.00;0.62;0.00;0.00;0.62;23.50;9.80;;;20.00;22.90;;;;;;2232824;62;20452;-69
2024/01/23 10:49:08;0.00;0.00;0.62;0.00;0.00;0.62;20.00;8.60;;;20.00;22.90;;;;;;2233580;62;20381;-68
2024/01/23 10:51:56;0.00;0.00;0.62;0.00;0.00;0.62;20.13;9.03;;;20.00;23.00;;;;;;2233085;62;20442;-67